Time;durP1;ratioP1;P1;durP2;ratioP2;P2;SDS_P1;SDS_P2;PMS_P1;PMS_P2;Temp;Humidity;BMP_temperature;BMP_pressure;BME280_temperature;BME280_humidity;BME280_pressure;Samples;Min_cycle;Max_cycle;Signal;HPM_P1;HPM_P2
2022/04/23 00:01:46;;;;;;;24.47;18.60;;;;;;;4.91;100.00;100248.38;4986967;28;20667;-69
2022/04/23 00:04:14;;;;;;;21.70;17.20;;;;;;;4.84;100.00;100246.72;4973204;28;20299;-69
2022/04/23 00:06:43;;;;;;;19.67;16.07;;;;;;;4.79;100.00;100253.66;4986597;28;20522;-69
2022/04/23 00:09:09;;;;;;;21.90;17.63;;;;;;;4.71;100.00;100249.41;4991570;28;20258;-69
2022/04/23 00:11:37;;;;;;;21.57;17.13;;;;;;;4.67;100.00;100252.88;4988669;28;20217;-70
2022/04/23 00:14:04;;;;;;;23.50;17.80;;;;;;;4.65;100.00;100241.69;4990981;28;20202;-70
2022/04/23 00:16:32;;;;;;;24.07;17.53;;;;;;;4.60;100.00;100243.47;4988629;28;20239;-69
2022/04/23 00:18:59;;;;;;;21.57;17.57;;;;;;;4.53;100.00;100250.38;4985972;28;20451;-69
2022/04/23 00:21:26;;;;;;;21.33;16.40;;;;;;;4.51;100.00;100248.69;4988844;28;20212;-69
2022/04/23 00:23:52;;;;;;;21.40;16.47;;;;;;;4.45;100.00;100241.88;4987924;28;20201;-69
2022/04/23 00:26:18;;;;;;;22.03;16.57;;;;;;;4.40;100.00;100238.44;4986774;28;20313;-69
2022/04/23 00:28:53;;;;;;;22.30;16.07;;;;;;;4.36;100.00;100245.38;4991311;28;20201;-69
2022/04/23 00:31:26;;;;;;;21.77;16.13;;;;;;;4.27;100.00;100245.41;4994143;28;20198;-69
2022/04/23 00:34:07;;;;;;;20.40;15.97;;;;;;;4.25;100.00;100243.72;4991800;28;20233;-69
2022/04/23 00:36:57;;;;;;;22.47;16.27;;;;;;;4.22;100.00;100247.19;4997345;28;20277;-69
2022/04/23 00:39:52;;;;;;;22.97;17.13;;;;;;;4.24;100.00;100244.56;4992079;28;20200;-69
2022/04/23 00:42:25;;;;;;;21.80;16.10;;;;;;;4.19;100.00;100247.19;4985214;28;20217;-70
2022/04/23 00:45:04;;;;;;;23.60;17.13;;;;;;;4.14;100.00;100244.63;4989139;28;20197;-69
2022/04/23 00:48:07;;;;;;;25.97;18.13;;;;;;;4.14;100.00;100244.63;4998336;28;20244;-69
2022/04/23 00:50:48;;;;;;;22.67;17.50;;;;;;;4.11;100.00;100248.94;4992282;28;20197;-69
2022/04/23 00:53:44;;;;;;;24.03;17.70;;;;;;;4.13;100.00;100250.66;4992156;28;20211;-69
2022/04/23 00:56:16;;;;;;;23.87;17.50;;;;;;;4.10;100.00;100244.69;4988592;28;20260;-69
2022/04/23 00:58:46;;;;;;;21.97;17.20;;;;;;;4.08;100.00;100248.97;4998047;28;20224;-69
2022/04/23 01:01:19;;;;;;;28.00;17.57;;;;;;;4.06;100.00;100253.28;4999381;28;20215;-69
2022/04/23 01:04:18;;;;;;;23.53;16.73;;;;;;;4.02;100.00;100251.59;5004643;28;20200;-69
2022/04/23 01:06:53;;;;;;;24.30;17.00;;;;;;;3.93;100.00;100255.06;4996212;28;20324;-70
2022/04/23 01:09:45;;;;;;;22.90;16.33;;;;;;;3.88;100.00;100255.06;5004007;28;20255;-69
2022/04/23 01:12:20;;;;;;;22.87;16.63;;;;;;;3.79;100.00;100253.41;4988507;28;20218;-69
2022/04/23 01:15:11;;;;;;;22.40;16.03;;;;;;;3.74;100.00;100249.97;4995052;28;20208;-69
2022/04/23 01:18:10;;;;;;;21.33;16.00;;;;;;;3.72;100.00;100248.28;4992556;28;20231;-69
2022/04/23 01:20:49;;;;;;;21.87;15.33;;;;;;;3.71;100.00;100243.97;4996856;28;20683;-70
2022/04/23 01:26:37;;;;;;;20.77;15.37;;;;;;;3.58;100.00;100245.75;5137809;27;20555;-70
2022/04/23 01:29:26;;;;;;;19.87;15.43;;;;;;;3.51;100.00;100244.91;5103391;28;20555;-70
2022/04/23 01:32:06;;;;;;;22.47;16.33;;;;;;;3.46;100.00;100244.06;5092722;28;20229;-70
2022/04/23 01:34:38;;;;;;;20.80;15.10;;;;;;;3.43;100.00;100241.53;5100190;28;20687;-70
2022/04/23 01:37:13;;;;;;;21.33;15.60;;;;;;;3.38;100.00;100241.53;5105316;28;20258;-69
2022/04/23 01:39:46;;;;;;;21.53;15.33;;;;;;;3.38;100.00;100244.09;5099481;28;20251;-70
2022/04/23 01:42:17;;;;;;;25.20;16.67;;;;;;;3.37;100.00;100239.78;5098918;28;20275;-71
2022/04/23 01:44:44;;;;;;;22.57;15.83;;;;;;;3.33;100.00;100230.38;5100961;28;20205;-71
2022/04/23 01:47:10;;;;;;;21.33;15.90;;;;;;;3.28;100.00;100241.56;5097402;28;20220;-70
2022/04/23 01:49:36;;;;;;;24.57;16.40;;;;;;;3.22;100.00;100238.13;5102289;28;20186;-70
2022/04/23 01:52:03;;;;;;;21.93;15.97;;;;;;;3.18;100.00;100244.16;5106558;28;20205;-70
2022/04/23 01:54:29;;;;;;;22.80;16.17;;;;;;;3.14;100.00;100242.44;5100607;28;20193;-70
2022/04/23 01:56:57;;;;;;;22.00;16.00;;;;;;;3.10;100.00;100243.31;5102590;28;20579;-71
2022/04/23 01:59:25;;;;;;;21.40;15.80;;;;;;;3.04;100.00;100248.44;5091911;28;20282;-71
2022/04/23 02:01:52;;;;;;;21.33;16.13;;;;;;;3.01;100.00;100243.31;5092993;28;20228;-70
2022/04/23 02:04:18;;;;;;;22.33;15.87;;;;;;;2.95;100.00;100241.59;5092710;28;20205;-70
2022/04/23 02:06:46;;;;;;;23.30;16.37;;;;;;;2.91;100.00;100250.19;5104669;28;20720;-70
2022/04/23 02:09:12;;;;;;;21.93;15.83;;;;;;;2.86;100.00;100243.34;5101929;28;20205;-70
2022/04/23 02:11:39;;;;;;;21.47;15.63;;;;;;;2.80;100.00;100251.94;5102663;28;20206;-70
2022/04/23 02:14:05;;;;;;;21.73;15.83;;;;;;;2.74;100.00;100251.91;5100812;28;20208;-70
2022/04/23 02:16:33;;;;;;;21.43;15.83;;;;;;;2.70;100.00;100248.47;5098826;28;20222;-70
2022/04/23 02:19:01;;;;;;;25.77;17.40;;;;;;;2.65;100.00;100256.19;5105040;28;20210;-70
2022/04/23 02:21:27;;;;;;;20.80;15.97;;;;;;;2.60;100.00;100255.34;5100680;28;20202;-70
2022/04/23 02:23:55;;;;;;;20.93;15.53;;;;;;;2.55;100.00;100259.66;5103524;28;20194;-70
2022/04/23 02:26:22;;;;;;;21.63;15.60;;;;;;;2.49;100.00;100257.03;5104945;28;20229;-70
2022/04/23 02:28:48;;;;;;;21.77;15.77;;;;;;;2.45;100.00;100258.75;5100493;28;20208;-70
2022/04/23 02:31:15;;;;;;;24.97;16.63;;;;;;;2.44;100.00;100263.91;5100520;28;20205;-70
2022/04/23 02:33:43;;;;;;;21.57;15.60;;;;;;;2.36;100.00;100269.03;5100990;28;20201;-70
2022/04/23 02:36:12;;;;;;;20.07;15.37;;;;;;;2.37;100.00;100267.31;5096771;28;20213;-70
2022/04/23 02:38:40;;;;;;;25.90;16.60;;;;;;;2.33;100.00;100266.47;5090184;28;20207;-70
2022/04/23 02:41:07;;;;;;;21.90;16.07;;;;;;;2.23;100.00;100265.59;5087294;28;20580;-70
2022/04/23 02:43:35;;;;;;;23.70;16.30;;;;;;;2.23;100.00;100267.28;5085708;28;20263;-70
2022/04/23 02:46:02;;;;;;;24.27;16.00;;;;;;;2.21;100.00;100267.28;5086877;28;20315;-70
2022/04/23 02:48:29;;;;;;;23.20;16.27;;;;;;;2.18;100.00;100269.88;5087204;28;20539;-70
2022/04/23 02:50:57;;;;;;;25.60;17.07;;;;;;;2.14;100.00;100270.69;5081985;28;20280;-70
2022/04/23 02:53:23;;;;;;;22.77;16.20;;;;;;;2.08;100.00;100268.97;5089759;28;20630;-70
2022/04/23 02:55:51;;;;;;;24.80;16.97;;;;;;;2.00;100.00;100273.22;5081347;28;20201;-70
2022/04/23 02:58:18;;;;;;;22.00;16.37;;;;;;;1.99;100.00;100274.09;5087000;28;20201;-70
2022/04/23 03:00:44;;;;;;;21.33;15.47;;;;;;;1.95;100.00;100274.06;5084302;28;20194;-70
2022/04/23 03:03:11;;;;;;;23.30;16.67;;;;;;;1.90;100.00;100274.06;5083645;28;20538;-70
2022/04/23 03:05:42;;;;;;;23.40;16.67;;;;;;;1.82;100.00;100278.31;5081439;28;20218;-70
2022/04/23 03:08:10;;;;;;;23.20;16.93;;;;;;;1.87;100.00;100284.34;5084225;28;20197;-70
2022/04/23 03:10:39;;;;;;;23.43;15.97;;;;;;;1.82;100.00;100278.31;5087577;28;20695;-70
2022/04/23 03:13:07;;;;;;;26.23;17.17;;;;;;;1.76;100.00;100278.28;5078629;28;20787;-70
2022/04/23 03:15:35;;;;;;;27.83;17.40;;;;;;;1.66;100.00;100280.81;5088280;28;20205;-70
2022/04/23 03:18:07;;;;;;;25.60;18.40;;;;;;;1.61;100.00;100279.94;5081296;28;20215;-70
2022/04/23 03:20:34;;;;;;;26.63;17.33;;;;;;;1.58;100.00;100274.75;5085373;28;20196;-70
2022/04/23 03:23:00;;;;;;;25.20;16.80;;;;;;;1.54;100.00;100277.31;5087959;28;20197;-70
2022/04/23 03:25:28;;;;;;;27.87;17.60;;;;;;;1.51;100.00;100283.28;5083023;28;20698;-71
2022/04/23 03:27:55;;;;;;;26.30;17.10;;;;;;;1.48;100.00;100278.16;5087479;28;20208;-71
2022/04/23 03:30:22;;;;;;;23.93;16.50;;;;;;;1.49;100.00;100283.28;5088204;28;20205;-70
2022/04/23 03:32:49;;;;;;;22.83;16.33;;;;;;;1.52;100.00;100285.03;5088322;28;20217;-70
2022/04/23 03:35:28;;;;;;;26.60;18.57;;;;;;;1.47;100.00;100284.13;5087204;28;20201;-70
2022/04/23 03:38:23;;;;;;;26.27;18.07;;;;;;;1.38;100.00;100284.94;5084516;28;20218;-71
2022/04/23 03:40:55;;;;;;;27.53;17.70;;;;;;;1.32;100.00;100287.50;5089142;28;20621;-70
2022/04/23 03:43:38;;;;;;;29.10;18.23;;;;;;;1.32;100.00;100285.78;5090054;28;20226;-70
2022/04/23 03:46:08;;;;;;;26.70;17.37;;;;;;;1.33;100.00;100287.47;5084231;28;20296;-70
2022/04/23 03:48:47;;;;;;;25.37;17.23;;;;;;;1.34;100.00;100280.66;5088370;28;20200;-70
2022/04/23 03:51:21;;;;;;;24.97;17.17;;;;;;;1.25;100.00;100288.28;5082605;28;20209;-70
2022/04/23 03:53:55;;;;;;;28.43;18.33;;;;;;;1.18;100.00;100284.84;5090101;28;20198;-70
2022/04/23 03:56:28;;;;;;;28.90;18.97;;;;;;;1.19;100.00;100288.25;5087410;28;20714;-70
2022/04/23 03:59:35;;;;;;;29.13;18.17;;;;;;;1.20;100.00;100289.97;5072764;28;20194;-70
2022/04/23 04:02:22;;;;;;;24.53;17.10;;;;;;;1.21;100.00;100283.97;5078367;28;20199;-70
2022/04/23 04:05:01;;;;;;;25.50;17.37;;;;;;;1.17;100.00;100287.38;5080630;28;20628;-70
2022/04/23 04:07:56;;;;;;;29.97;18.47;;;;;;;1.15;100.00;100289.09;5089248;28;20222;-70
2022/04/23 04:10:35;;;;;;;27.67;18.37;;;;;;;1.16;100.00;100289.06;5078684;28;20202;-71
2022/04/23 04:13:35;;;;;;;29.37;18.93;;;;;;;1.23;100.00;100290.84;5075165;28;20233;-70
2022/04/23 04:16:08;;;;;;;29.30;18.97;;;;;;;1.23;100.00;100289.97;5080900;28;20189;-70
2022/04/23 04:18:45;;;;;;;32.23;19.57;;;;;;;1.25;100.00;100281.44;5088741;28;20907;-70
2022/04/23 04:21:25;;;;;;;32.23;20.27;;;;;;;1.31;100.00;100280.63;5074431;28;20220;-71
2022/04/23 04:27:01;;;;;;;27.80;18.83;;;;;;;1.49;100.00;100285.84;5085288;28;20316;-71
2022/04/23 04:29:45;;;;;;;30.60;20.07;;;;;;;1.50;100.00;100281.59;5081259;28;20217;-70
2022/04/23 04:32:17;;;;;;;31.13;20.70;;;;;;;1.56;100.00;100291.88;5083160;28;20188;-70
2022/04/23 04:34:54;;;;;;;34.80;21.23;;;;;;;1.56;100.00;100286.75;5085014;28;20192;-70
2022/04/23 04:37:31;;;;;;;34.03;22.03;;;;;;;1.58;100.00;100290.19;5079428;28;20767;-70
2022/04/23 04:40:16;;;;;;;34.60;22.50;;;;;;;1.62;100.00;100291.94;5084157;28;20195;-70
2022/04/23 04:43:14;;;;;;;38.37;22.63;;;;;;;1.70;100.00;100300.53;5084841;28;20193;-70
2022/04/23 04:49:33;;;;;;;38.90;23.97;;;;;;;1.91;100.00;100292.91;5064310;28;20221;-70
2022/04/23 04:52:04;;;;;;;41.57;25.10;;;;;;;1.99;100.00;100296.38;5079169;28;20728;-70
2022/04/23 04:54:54;;;;;;;43.73;25.43;;;;;;;2.06;100.00;100298.97;5083126;28;20411;-70
2022/04/23 04:58:02;;;;;;;42.10;25.27;;;;;;;2.15;100.00;100300.72;5083276;28;20218;-70
2022/04/23 05:00:52;;;;;;;43.17;25.10;;;;;;;2.22;100.00;100304.19;5088288;28;20195;-70
2022/04/23 05:03:35;;;;;;;43.53;26.07;;;;;;;2.30;100.00;100301.63;5086061;28;20679;-70
2022/04/23 05:06:13;;;;;;;48.63;28.17;;;;;;;2.33;100.00;100296.50;5081553;28;20221;-70
2022/04/23 05:08:42;;;;;;;47.20;26.90;;;;;;;2.40;100.00;100300.78;5084750;28;20209;-71
2022/04/23 05:11:18;;;;;;;48.73;27.87;;;;;;;2.46;100.00;100300.78;5081409;28;20193;-71
2022/04/23 05:14:42;;;;;;;46.90;27.77;;;;;;;2.55;100.00;100300.81;5083572;28;20193;-71
2022/04/23 05:18:03;;;;;;;47.13;27.57;;;;;;;2.64;100.00;100305.97;5083971;28;20229;-71
2022/04/23 05:25:10;;;;;;;51.03;28.17;;;;;;;2.96;100.00;100315.44;5073451;28;20214;-70
2022/04/23 05:28:21;;;;;;;53.03;30.90;;;;;;;3.14;100.00;100322.28;5085759;28;20233;-70
2022/04/23 05:35:06;;;;;;;50.27;29.17;;;;;;;3.49;100.00;100323.97;5073329;28;20201;-70
2022/04/23 05:38:08;;;;;;;50.73;30.00;;;;;;;3.64;100.00;100328.25;5082422;28;21157;-70
2022/04/23 05:41:05;;;;;;;53.00;29.27;;;;;;;3.79;100.00;100333.34;5017255;28;20209;-70
2022/04/23 05:44:25;;;;;;;48.97;28.93;;;;;;;3.92;100.00;100334.19;4990132;28;20484;-70
2022/04/23 05:47:06;;;;;;;43.20;27.93;;;;;;;4.07;100.00;100341.00;5087576;28;20232;-70
2022/04/23 05:49:37;;;;;;;40.43;26.67;;;;;;;4.16;100.00;100345.25;5084215;28;20201;-70
2022/04/23 05:52:57;;;;;;;37.07;25.30;;;;;;;4.29;100.00;100333.16;5078006;28;20276;-71
2022/04/23 05:55:31;;;;;;;35.00;23.50;;;;;;;4.44;100.00;100347.72;5084263;28;20658;-70
2022/04/23 06:01:53;;;;;;;33.13;22.73;;;;;;;4.70;100.00;100345.81;5043405;28;20207;-71
2022/04/23 06:04:20;;;;;;;29.77;21.00;;;;;;;4.80;100.00;100338.00;5044382;28;20218;-70
2022/04/23 06:06:46;;;;;;;24.57;18.27;;;;;;;4.87;100.00;100340.56;5075076;28;20234;-70
2022/04/23 06:09:14;;;;;;;24.73;18.93;;;;;;;4.99;100.00;100352.50;5087956;28;20206;-70
2022/04/23 06:11:41;;;;;;;25.17;18.67;;;;;;;5.07;100.00;100348.16;5083459;28;20202;-70
2022/04/23 06:14:14;;;;;;;25.43;18.17;;;;;;;5.21;100.00;100340.28;5085978;28;20204;-70
2022/04/23 06:16:48;;;;;;;24.33;18.10;;;;;;;5.29;100.00;100343.66;5082008;28;20754;-69
2022/04/23 06:19:35;;;;;;;24.83;17.50;;;;;;;5.36;100.00;100341.84;5086634;28;20206;-70
2022/04/23 06:22:26;;;;;;;21.80;16.53;;;;;;;5.46;100.00;100338.31;5088695;28;20289;-70
2022/04/23 06:25:05;;;;;;;21.90;16.60;;;;;;;5.64;100.00;100341.59;5087679;28;20600;-70
2022/04/23 06:27:46;;;;;;;21.00;16.57;;;;;;;5.83;100.00;100345.69;5083188;28;20225;-70
2022/04/23 06:30:32;;;;;;;23.23;16.07;;;;;;;5.97;100.00;100348.16;5083410;28;20374;-70
2022/04/23 06:33:22;;;;;;;18.27;14.33;;;;;;;6.09;98.85;100360.13;5083430;28;20661;-70
2022/04/23 06:36:02;;;;;;;20.13;15.37;;;;;;;6.25;100.00;100355.59;5083086;28;20183;-70
2022/04/23 06:38:40;;;;;;;17.63;14.07;;;;;;;6.40;98.24;100357.13;5085483;28;20537;-70
2022/04/23 06:41:23;;;;;;;20.23;14.70;;;;;;;6.49;96.93;100362.22;5081693;28;20226;-70
2022/04/23 06:44:06;;;;;;;17.47;14.03;;;;;;;6.57;95.31;100356.91;5082939;28;20194;-70
2022/04/23 06:46:45;;;;;;;17.47;13.73;;;;;;;6.68;94.20;100355.00;5080382;28;20750;-70
2022/04/23 06:49:21;;;;;;;18.83;14.70;;;;;;;6.91;95.35;100359.00;5074781;28;20205;-70
2022/04/23 06:51:52;;;;;;;16.30;12.83;;;;;;;7.04;92.21;100367.47;5083460;28;20202;-70
2022/04/23 06:54:25;;;;;;;15.07;12.10;;;;;;;7.15;nan;100365.53;5086193;28;20214;-70
2022/04/23 06:57:20;;;;;;;15.37;11.93;;;;;;;7.29;91.84;100366.16;5083006;28;20249;-70
2022/04/23 07:00:12;;;;;;;15.23;12.90;;;;;;;7.41;89.56;100369.44;5085672;28;20226;-70
2022/04/23 07:02:42;;;;;;;15.07;12.57;;;;;;;7.50;89.66;100370.13;5083312;28;20203;-70
2022/04/23 07:05:23;;;;;;;16.37;12.93;;;;;;;7.62;88.37;100373.41;5084374;28;20201;-70
2022/04/23 07:08:17;;;;;;;15.53;12.47;;;;;;;7.67;87.66;100371.56;5075110;28;20257;-70
2022/04/23 07:11:04;;;;;;;14.70;12.13;;;;;;;7.72;85.88;100362.84;5085524;28;20733;-70
2022/04/23 07:14:01;;;;;;;15.37;12.30;;;;;;;7.91;85.18;100365.91;5079225;28;20204;-70
2022/04/23 07:16:42;;;;;;;12.97;11.20;;;;;;;8.07;83.46;100369.09;5082720;28;20592;-70
2022/04/23 07:19:29;;;;;;;13.20;11.20;;;;;;;8.12;82.62;100368.97;5083224;28;20194;-70
2022/04/23 07:22:22;;;;;;;12.80;10.93;;;;;;;8.26;82.38;100372.16;5079069;28;20699;-70
2022/04/23 07:25:11;;;;;;;12.47;10.07;;;;;;;8.44;83.09;100365.78;5088745;28;20217;-70
2022/04/23 07:27:50;;;;;;;11.87;9.60;;;;;;;8.61;79.31;100369.72;5082595;28;20225;-70
2022/04/23 07:31:06;;;;;;;11.57;10.00;;;;;;;8.75;79.03;100366.81;5078762;28;20198;-70
2022/04/23 07:39:24;;;;;;;13.17;9.00;;;;;;;9.13;74.52;100376.34;5082603;28;20198;-70
2022/04/23 07:41:53;;;;;;;10.67;9.57;;;;;;;9.24;74.90;100369.13;5081974;28;20214;-70
2022/04/23 07:44:29;;;;;;;9.57;8.67;;;;;;;9.32;74.40;100374.13;5087998;28;20327;-70
2022/04/23 07:47:07;;;;;;;9.37;8.23;;;;;;;9.38;72.54;100378.34;5083437;28;20764;-70
2022/04/23 07:49:46;;;;;;;11.70;8.40;;;;;;;9.52;72.67;100371.03;5084191;28;20287;-70
2022/04/23 07:52:19;;;;;;;10.27;8.23;;;;;;;9.66;72.10;100378.47;5082977;28;20200;-70
2022/04/23 07:55:12;;;;;;;10.83;8.60;;;;;;;9.70;73.48;100371.44;5084737;28;20263;-70
2022/04/23 07:57:53;;;;;;;9.23;8.23;;;;;;;9.70;69.36;100368.84;5081375;28;20219;-70
2022/04/23 08:00:48;;;;;;;9.33;7.80;;;;;;;9.78;66.32;100374.69;5081212;28;20196;-70
2022/04/23 08:03:19;;;;;;;8.00;7.13;;;;;;;9.89;65.61;100370.06;5082812;28;20232;-70
2022/04/23 08:06:10;;;;;;;8.57;7.67;;;;;;;10.00;65.60;100369.75;5079498;28;20710;-70
2022/04/23 08:08:48;;;;;;;7.47;6.70;;;;;;;10.05;63.55;100370.47;5077500;28;20209;-70
2022/04/23 08:11:35;;;;;;;8.97;7.57;;;;;;;10.10;66.80;100354.72;5078927;28;20620;-70
2022/04/23 08:17:38;;;;;;;7.93;7.13;;;;;;;10.29;65.33;100355.03;5074948;28;20308;-70
2022/04/23 08:20:41;;;;;;;7.40;6.53;;;;;;;10.45;63.48;100355.47;5091208;28;20468;-70
2022/04/23 08:23:40;;;;;;;6.70;5.67;;;;;;;10.58;64.97;100352.44;5078486;28;20214;-70
2022/04/23 08:26:21;;;;;;;8.30;7.07;;;;;;;10.55;65.72;100354.28;5084140;28;20298;-70
2022/04/23 08:32:08;;;;;;;7.30;6.60;;;;;;;10.74;62.81;100358.03;5079155;28;20592;-70
2022/04/23 08:34:49;;;;;;;6.90;6.20;;;;;;;10.89;61.58;100354.13;5082478;28;20277;-70
2022/04/23 08:37:23;;;;;;;7.37;6.63;;;;;;;11.02;59.97;100361.53;5082670;28;20298;-70
2022/04/23 08:39:52;;;;;;;7.07;6.37;;;;;;;10.98;59.67;100356.41;5080717;28;20551;-70
2022/04/23 08:42:19;;;;;;;8.73;6.50;;;;;;;11.11;62.80;100350.81;5080591;28;20696;-71
2022/04/23 08:44:46;;;;;;;8.40;6.73;;;;;;;11.29;59.88;100354.56;5075308;28;20199;-71
2022/04/23 08:47:16;;;;;;;7.37;6.33;;;;;;;11.35;59.58;100352.59;5081086;28;20227;-71
2022/04/23 08:49:43;;;;;;;7.63;6.73;;;;;;;11.34;60.03;100345.69;5078446;28;20213;-71
2022/04/23 08:52:16;;;;;;;7.50;6.70;;;;;;;11.41;59.49;100346.31;5081851;28;20210;-71
2022/04/23 08:54:43;;;;;;;7.97;6.90;;;;;;;11.47;58.73;100353.94;5078581;28;20210;-71
2022/04/23 08:57:11;;;;;;;7.33;6.53;;;;;;;11.55;58.74;100344.06;5079618;28;20284;-71
2022/04/23 08:59:38;;;;;;;7.80;7.00;;;;;;;11.47;59.15;100346.13;5083603;28;20205;-71
2022/04/23 09:02:10;;;;;;;6.97;5.90;;;;;;;11.60;59.02;100346.53;5083152;28;20221;-71
2022/04/23 09:04:37;;;;;;;7.57;6.77;;;;;;;11.61;58.08;100352.59;5078069;28;20667;-71
2022/04/23 09:07:04;;;;;;;8.00;6.27;;;;;;;11.70;58.70;100345.31;5081649;28;20296;-71
2022/04/23 09:09:31;;;;;;;7.63;6.03;;;;;;;11.76;58.42;100341.63;5078293;28;20400;-71
2022/04/23 09:11:59;;;;;;;7.20;5.70;;;;;;;11.86;58.06;100332.56;5082622;28;20195;-71
2022/04/23 09:14:29;;;;;;;6.90;6.17;;;;;;;11.96;58.73;100327.03;5076889;28;20212;-71
2022/04/23 09:25:15;;;;;;;6.40;5.60;;;;;;;12.21;57.01;100325.22;5081351;28;20326;-71
2022/04/23 09:27:42;;;;;;;6.80;6.10;;;;;;;12.25;60.07;100312.88;5076157;28;20215;-71
2022/04/23 09:30:11;;;;;;;6.10;5.50;;;;;;;12.30;57.08;100324.88;5078264;28;20283;-71
2022/04/23 09:32:38;;;;;;;7.60;5.43;;;;;;;12.52;57.13;100329.25;5079493;28;20212;-71
2022/04/23 09:35:10;;;;;;;7.67;5.33;;;;;;;12.52;56.52;100320.56;5080091;28;20208;-71
2022/04/23 09:40:22;;;;;;;6.83;6.20;;;;;;;12.63;55.70;100308.78;5077017;28;20209;-71
2022/04/23 09:42:56;;;;;;;6.50;5.37;;;;;;;12.80;54.94;100313.31;5078274;28;20195;-71
2022/04/23 09:45:26;;;;;;;6.27;5.67;;;;;;;12.79;55.49;100303.78;5075780;28;20254;-71
2022/04/23 09:47:53;;;;;;;7.57;5.63;;;;;;;12.85;59.06;100294.84;5078821;28;20218;-71
2022/04/23 09:50:19;;;;;;;5.50;5.00;;;;;;;12.99;53.32;100308.19;5078628;28;20197;-72
2022/04/23 09:52:46;;;;;;;6.00;5.40;;;;;;;12.96;54.46;100299.63;5080598;28;20805;-71
2022/04/23 09:55:21;;;;;;;6.27;5.60;;;;;;;12.84;54.88;100301.84;5084056;28;20200;-71
2022/04/23 09:57:48;;;;;;;5.70;5.20;;;;;;;12.87;53.78;100304.34;5117506;27;20281;-71
2022/04/23 10:00:16;;;;;;;5.50;5.00;;;;;;;13.09;56.20;100295.59;5084716;28;20573;-71
2022/04/23 10:02:46;;;;;;;5.60;5.00;;;;;;;13.14;55.85;100292.78;5085994;28;20209;-71
2022/04/23 10:05:15;;;;;;;5.07;4.57;;;;;;;13.19;56.20;100291.69;5086759;28;20255;-71
2022/04/23 10:07:45;;;;;;;5.30;4.80;;;;;;;13.30;52.39;100306.06;5078841;28;20229;-71
2022/04/23 10:10:13;;;;;;;5.90;4.70;;;;;;;13.39;52.65;100292.63;5073908;28;20315;-71
2022/04/23 10:12:44;;;;;;;5.17;4.67;;;;;;;13.47;55.09;100279.19;5086619;28;20208;-71
2022/04/23 10:15:11;;;;;;;5.60;4.77;;;;;;;13.52;53.02;100296.41;5084306;28;20245;-71
2022/04/23 10:17:40;;;;;;;5.30;4.80;;;;;;;13.42;52.19;100290.72;5079448;28;21307;-71
2022/04/23 10:20:11;;;;;;;5.93;4.93;;;;;;;13.47;54.82;100274.78;5073866;28;20571;-71
2022/04/23 10:22:52;;;;;;;5.53;4.70;;;;;;;13.68;55.25;100273.00;5075782;28;20213;-69
2022/04/23 10:25:28;;;;;;;6.60;4.73;;;;;;;13.65;52.12;100286.25;5080286;28;20229;-71
2022/04/23 10:27:56;;;;;;;5.03;4.53;;;;;;;13.48;51.11;100279.13;5077907;28;20313;-71
2022/04/23 10:30:23;;;;;;;4.63;4.17;;;;;;;13.55;51.69;100287.56;5084712;28;20198;-71
2022/04/23 10:32:50;;;;;;;4.63;4.23;;;;;;;13.48;51.68;100278.28;5078349;28;20217;-71
2022/04/23 10:35:36;;;;;;;5.27;4.77;;;;;;;13.71;51.71;100272.88;5081362;28;20228;-71
2022/04/23 10:38:21;;;;;;;6.50;4.63;;;;;;;13.94;52.14;100273.59;5084503;28;20216;-71
2022/04/23 10:40:51;;;;;;;6.60;4.67;;;;;;;13.98;55.08;100267.28;5083992;28;21013;-71
2022/04/23 10:43:19;;;;;;;4.57;4.17;;;;;;;13.90;52.67;100266.81;5079820;28;20206;-71
2022/04/23 10:45:48;;;;;;;5.10;4.57;;;;;;;13.97;54.21;100263.84;5086009;28;20740;-71
2022/04/23 10:48:23;;;;;;;6.13;4.80;;;;;;;14.16;51.79;100265.63;5079642;28;20733;-71
2022/04/23 10:51:06;;;;;;;5.20;4.70;;;;;;;14.15;49.96;100274.38;5084553;28;20210;-71
2022/04/23 10:53:56;;;;;;;5.03;4.50;;;;;;;14.04;52.58;100263.56;5084844;28;20205;-71
2022/04/23 10:56:23;;;;;;;6.90;5.27;;;;;;;14.13;49.66;100269.22;5085957;28;20692;-71
2022/04/23 10:58:55;;;;;;;6.67;5.73;;;;;;;14.14;48.98;100270.94;5079052;28;20647;-70
2022/04/23 11:01:45;;;;;;;13.50;8.90;;;;;;;14.25;48.47;100254.69;5084755;28;20227;-71
2022/04/23 11:04:23;;;;;;;6.83;5.83;;;;;;;14.51;50.40;100236.84;5080767;28;20251;-71
2022/04/23 11:13:36;;;;;;;13.33;9.90;;;;;;;14.50;47.84;100249.13;5081555;28;20196;-71
2022/04/23 11:19:17;;;;;;;4.43;4.00;;;;;;;14.77;47.65;100248.72;5072632;28;20221;-70
2022/04/23 11:22:01;;;;;;;4.60;4.20;;;;;;;14.72;46.25;100243.72;5083421;28;20202;-71
2022/04/23 11:24:53;;;;;;;4.13;3.73;;;;;;;14.76;45.93;100241.78;5083024;28;20207;-71
2022/04/23 11:27:43;;;;;;;4.30;3.90;;;;;;;14.91;45.26;100248.03;5083060;28;20312;-72
2022/04/23 11:30:20;;;;;;;4.17;3.80;;;;;;;15.03;45.13;100228.19;5080238;28;20674;-70
2022/04/23 11:32:53;;;;;;;4.00;3.70;;;;;;;14.93;45.98;100235.66;5079532;28;20201;-70
2022/04/23 11:35:36;;;;;;;4.20;3.80;;;;;;;15.18;46.04;100235.28;5081127;28;21003;-71
2022/04/23 11:38:05;;;;;;;5.47;3.93;;;;;;;15.18;45.20;100237.06;5079686;28;20767;-70
2022/04/23 11:40:39;;;;;;;4.60;4.00;;;;;;;15.28;45.88;100220.72;5077598;28;20277;-71
2022/04/23 11:43:12;;;;;;;4.13;3.73;;;;;;;15.50;45.91;100222.25;5082936;28;20197;-71
2022/04/23 11:45:57;;;;;;;4.07;3.57;;;;;;;15.76;43.76;100236.66;5082666;28;20204;-70
2022/04/23 11:48:39;;;;;;;3.43;3.13;;;;;;;15.80;45.38;100219.78;5075174;28;20231;-71
2022/04/23 11:51:13;;;;;;;4.60;3.90;;;;;;;15.88;44.32;100221.97;5077342;28;20208;-70
2022/04/23 11:53:58;;;;;;;3.97;3.40;;;;;;;15.95;44.30;100223.34;5078293;28;20656;-71
2022/04/23 11:56:32;;;;;;;5.50;3.93;;;;;;;15.95;43.89;100219.88;5084576;28;20247;-71
2022/04/23 11:59:05;;;;;;;4.20;3.80;;;;;;;15.87;43.61;100217.69;5074657;28;20204;-72
2022/04/23 12:01:38;;;;;;;3.70;3.40;;;;;;;15.97;44.00;100212.75;5082465;28;20274;-70
2022/04/23 12:07:02;;;;;;;3.80;3.50;;;;;;;15.55;43.01;100217.59;5083098;28;20264;-72
2022/04/23 12:09:49;;;;;;;4.13;3.83;;;;;;;15.37;43.17;100208.06;5085145;28;20257;-70
2022/04/23 12:12:25;;;;;;;3.93;3.53;;;;;;;15.51;43.03;100205.53;5090113;28;20578;-71
2022/04/23 12:14:56;;;;;;;4.57;3.50;;;;;;;15.87;42.88;100208.00;5085127;28;20190;-71
2022/04/23 12:17:30;;;;;;;4.13;3.73;;;;;;;15.87;43.74;100199.28;5080816;28;20921;-72
2022/04/23 12:20:13;;;;;;;4.13;3.77;;;;;;;15.63;43.05;100201.41;5084026;28;20661;-72
2022/04/23 12:25:42;;;;;;;4.27;3.87;;;;;;;15.41;46.08;100176.31;5078889;28;20241;-71
2022/04/23 12:42:47;;;;;;;4.00;3.60;;;;;;;15.90;41.94;100181.56;5074970;28;20217;-72
2022/04/23 12:45:41;;;;;;;4.33;3.93;;;;;;;16.11;41.11;100176.00;5081026;28;20229;-70
2022/04/23 12:48:14;;;;;;;7.90;3.43;;;;;;;16.63;42.17;100159.03;5082193;28;20216;-70
2022/04/23 12:50:50;;;;;;;5.73;3.80;;;;;;;16.84;42.40;100156.94;5084859;28;20215;-71
2022/04/23 12:53:38;;;;;;;4.93;3.80;;;;;;;16.78;41.07;100165.16;5080879;28;20198;-70
2022/04/23 12:56:18;;;;;;;3.83;3.50;;;;;;;16.26;42.74;100155.91;5074215;28;20220;-70
2022/04/23 12:58:59;;;;;;;4.50;3.13;;;;;;;16.17;41.53;100154.63;5081836;28;20190;-71
2022/04/23 13:01:38;;;;;;;5.50;3.67;;;;;;;16.36;43.60;100157.06;5076909;28;20294;-71
2022/04/23 13:04:21;;;;;;;4.20;3.80;;;;;;;16.24;40.83;100148.09;5081309;28;20672;-70
2022/04/23 13:09:47;;;;;;;4.00;3.70;;;;;;;16.46;41.68;100152.97;5078917;28;20209;-71
2022/04/23 13:12:37;;;;;;;4.33;3.90;;;;;;;16.56;40.83;100141.91;5079448;28;20590;-71
2022/04/23 13:15:15;;;;;;;3.90;3.50;;;;;;;16.81;43.01;100128.97;5075822;28;20567;-71
2022/04/23 13:18:00;;;;;;;3.80;3.47;;;;;;;17.03;43.00;100139.09;5077903;28;20332;-71
2022/04/23 13:20:47;;;;;;;3.87;3.47;;;;;;;16.96;43.06;100124.59;5077908;28;20202;-72